createdAt,value
2018-04-12T00:00:59.541Z,69.80
2018-04-12T00:03:27.954Z,67.43
2018-04-12T00:05:56.304Z,69.07
2018-04-12T00:08:24.611Z,76.27
2018-04-12T00:10:53.692Z,77.40
2018-04-12T00:13:23.174Z,70.07
2018-04-12T00:15:51.489Z,76.50
2018-04-12T00:18:20.668Z,78.33
2018-04-12T00:20:49.002Z,65.83
2018-04-12T00:23:17.331Z,73.90
2018-04-12T00:25:45.648Z,71.17
2018-04-12T00:28:14.741Z,74.33
2018-04-12T00:30:43.816Z,73.77
2018-04-12T00:33:12.122Z,80.20
2018-04-12T00:35:41.192Z,72.13
2018-04-12T00:38:09.549Z,79.60
2018-04-12T00:40:37.855Z,78.00
2018-04-12T00:43:06.856Z,73.93
2018-04-12T00:45:35.149Z,77.10
2018-04-12T00:48:04.232Z,77.00
2018-04-12T00:50:32.541Z,76.60
2018-04-12T00:53:01.620Z,71.30
2018-04-12T00:55:29.943Z,71.70
2018-04-12T00:57:58.259Z,75.43
2018-04-12T01:00:26.604Z,72.57
2018-04-12T01:02:54.923Z,82.23
2018-04-12T01:05:23.256Z,76.30
2018-04-12T01:07:52.365Z,78.67
2018-04-12T01:10:20.748Z,77.20
2018-04-12T01:12:49.054Z,73.13
2018-04-12T01:15:17.362Z,78.47
2018-04-12T01:17:45.662Z,79.77
2018-04-12T01:20:14.784Z,78.43
2018-04-12T01:22:43.102Z,78.40
2018-04-12T01:25:12.048Z,85.07
2018-04-12T01:27:40.365Z,80.50
2018-04-12T01:30:08.685Z,84.97
2018-04-12T01:32:36.982Z,80.47
2018-04-12T01:35:06.072Z,79.20
2018-04-12T01:37:35.243Z,77.33
2018-04-12T01:40:03.561Z,86.50
2018-04-12T01:42:32.620Z,89.53
2018-04-12T01:45:00.937Z,82.97
2018-04-12T01:47:30.045Z,82.73
2018-04-12T01:49:59.159Z,79.23
2018-04-12T01:52:27.499Z,84.20
2018-04-12T01:54:55.815Z,85.60
2018-04-12T01:57:24.113Z,82.87
2018-04-12T01:59:52.402Z,77.80
2018-04-12T02:02:20.726Z,85.17
2018-04-12T02:04:49.057Z,83.60
2018-04-12T02:07:17.376Z,78.70
2018-04-12T02:09:45.702Z,77.70
2018-04-12T02:12:14.017Z,91.10
2018-04-12T02:14:42.337Z,86.70
2018-04-12T02:17:11.531Z,82.10
2018-04-12T02:19:39.851Z,86.73
2018-04-12T02:22:08.246Z,85.77
2018-04-12T02:24:36.547Z,79.03
2018-04-12T02:27:04.839Z,81.00
2018-04-12T02:29:33.155Z,80.53
2018-04-12T02:32:02.265Z,76.60
2018-04-12T02:34:30.592Z,71.07
2018-04-12T02:36:58.889Z,73.63
2018-04-12T02:39:27.217Z,68.70
2018-04-12T02:41:55.525Z,73.53
2018-04-12T02:44:23.824Z,71.73
2018-04-12T02:46:52.126Z,70.63
2018-04-12T02:49:21.200Z,67.33
2018-04-12T02:51:49.597Z,73.80
2018-04-12T02:54:17.922Z,69.10
2018-04-12T02:56:46.241Z,80.40
2018-04-12T02:59:14.544Z,80.27
2018-04-12T03:01:42.900Z,70.47
2018-04-12T03:04:11.224Z,71.20
2018-04-12T03:06:40.288Z,73.60
2018-04-12T03:09:08.596Z,74.10
2018-04-12T03:11:37.674Z,82.73
2018-04-12T03:14:05.985Z,80.20
2018-04-12T03:16:35.070Z,86.27
2018-04-12T03:19:04.134Z,84.00
2018-04-12T03:21:32.471Z,81.40
2018-04-12T03:24:00.778Z,86.07
2018-04-12T03:26:29.076Z,83.83
2018-04-12T03:28:57.377Z,81.43
2018-04-12T03:31:25.690Z,87.53
2018-04-12T03:33:54.002Z,89.63
2018-04-12T03:36:22.526Z,84.57
2018-04-12T03:38:50.852Z,87.63
2018-04-12T03:41:19.149Z,86.90
2018-04-12T03:43:47.465Z,85.13
2018-04-12T03:46:15.771Z,92.50
2018-04-12T03:48:44.958Z,92.53
2018-04-12T03:51:13.917Z,81.13
2018-04-12T03:53:42.998Z,87.07
2018-04-12T03:56:11.301Z,91.17
2018-04-12T03:58:39.595Z,87.57
2018-04-12T04:01:07.934Z,92.13
2018-04-12T04:03:36.399Z,85.57
2018-04-12T04:06:05.505Z,89.20
2018-04-12T04:08:33.793Z,91.57
2018-04-12T04:11:02.128Z,97.90
2018-04-12T04:13:30.469Z,85.43
2018-04-12T04:16:16.560Z,90.07
2018-04-12T04:19:02.750Z,90.10
2018-04-12T04:21:31.050Z,90.77
2018-04-12T04:23:59.344Z,76.63
2018-04-12T04:26:28.512Z,84.33
2018-04-12T04:28:56.801Z,80.17
2018-04-12T04:31:25.125Z,86.17
2018-04-12T04:33:54.221Z,87.63
2018-04-12T04:36:23.287Z,86.50
2018-04-12T04:38:51.618Z,86.83
2018-04-12T04:41:19.934Z,87.90
2018-04-12T04:43:48.235Z,83.83
2018-04-12T04:46:16.552Z,91.67
2018-04-12T04:48:45.619Z,90.80
2018-04-12T04:51:13.933Z,91.87
2018-04-12T04:53:43.029Z,83.57
2018-04-12T04:56:12.091Z,89.93
2018-04-12T04:58:40.383Z,83.07
2018-04-12T05:01:08.707Z,82.43
2018-04-12T05:03:37.024Z,82.77
2018-04-12T05:06:05.311Z,82.87
2018-04-12T05:08:33.622Z,81.60
2018-04-12T05:11:02.705Z,78.40
2018-04-12T05:13:31.013Z,74.30
2018-04-12T05:16:00.091Z,77.53
2018-04-12T05:18:28.410Z,72.83
2018-04-12T05:20:56.741Z,78.33
2018-04-12T05:23:25.145Z,61.93
2018-04-12T05:25:54.215Z,73.37
2018-04-12T05:28:22.553Z,70.43
2018-04-12T05:30:50.871Z,71.60
2018-04-12T05:33:19.184Z,70.10
2018-04-12T05:35:48.273Z,68.97
2018-04-12T05:38:18.367Z,70.27
2018-04-12T05:40:46.687Z,69.90
2018-04-12T05:43:15.755Z,64.73
2018-04-12T05:45:44.057Z,62.83
2018-04-12T05:48:12.393Z,62.73
2018-04-12T05:50:40.708Z,65.10
2018-04-12T05:53:09.022Z,61.27
2018-04-12T05:55:37.318Z,60.37
2018-04-12T05:58:05.636Z,62.97
2018-04-12T06:00:33.942Z,62.77
2018-04-12T06:03:02.264Z,63.63
2018-04-12T06:05:30.623Z,62.83
2018-04-12T06:07:58.941Z,64.27
2018-04-12T06:10:27.311Z,67.10
2018-04-12T06:12:55.623Z,69.37
2018-04-12T06:15:23.917Z,67.60
2018-04-12T06:17:52.219Z,68.97
2018-04-12T06:20:21.324Z,65.57
2018-04-12T06:22:50.467Z,59.00
2018-04-12T06:25:18.801Z,67.10
2018-04-12T06:27:47.893Z,66.10
2018-04-12T06:30:16.992Z,60.47
2018-04-12T06:32:46.095Z,64.50
2018-04-12T06:35:15.243Z,61.93
2018-04-12T06:37:43.601Z,63.53
2018-04-12T06:40:11.915Z,59.40
2018-04-12T06:42:40.221Z,58.27
2018-04-12T06:45:08.525Z,64.17
2018-04-12T06:47:36.859Z,55.13
2018-04-12T06:50:05.242Z,64.23
2018-04-12T06:52:33.593Z,59.43
2018-04-12T06:55:01.913Z,61.13
2018-04-12T06:57:30.214Z,58.20
2018-04-12T06:59:58.546Z,57.87
2018-04-12T07:02:26.844Z,56.40
2018-04-12T07:04:55.177Z,56.60
2018-04-12T07:07:24.255Z,53.87
2018-04-12T07:09:52.552Z,53.20
2018-04-12T07:12:21.540Z,61.77
2018-04-12T07:14:50.853Z,51.30
2018-04-12T07:17:19.937Z,51.53
2018-04-12T07:19:49.032Z,50.20
2018-04-12T07:22:17.352Z,59.90
2018-04-12T07:24:45.661Z,53.43
2018-04-12T07:27:13.982Z,54.80
2018-04-12T07:29:43.077Z,54.37
2018-04-12T07:32:12.154Z,59.60
2018-04-12T07:34:40.571Z,55.50
2018-04-12T07:37:09.262Z,57.70
2018-04-12T07:39:38.341Z,53.10
2018-04-12T07:42:06.660Z,55.20
2018-04-12T07:44:34.961Z,55.60
2018-04-12T07:47:03.303Z,58.10
2018-04-12T07:49:32.378Z,63.67
2018-04-12T07:52:01.445Z,58.37
2018-04-12T07:54:29.767Z,61.80
2018-04-12T07:56:58.852Z,59.83
2018-04-12T07:59:27.174Z,59.60
2018-04-12T08:01:55.492Z,56.27
2018-04-12T08:04:23.812Z,59.43
2018-04-12T08:06:52.909Z,66.75
2018-04-12T08:09:21.994Z,59.70
2018-04-12T08:11:50.308Z,64.57
2018-04-12T08:14:18.619Z,66.93
2018-04-12T08:16:46.974Z,60.83
2018-04-12T08:19:15.281Z,59.50
2018-04-12T08:21:43.734Z,60.50
2018-04-12T08:24:12.029Z,57.50
2018-04-12T08:26:40.440Z,58.47
2018-04-12T08:29:08.779Z,56.87
2018-04-12T08:31:37.095Z,57.87
2018-04-12T08:34:05.419Z,52.70
2018-04-12T08:36:34.530Z,53.00
2018-04-12T08:39:03.683Z,59.40
2018-04-12T08:41:31.995Z,52.43
2018-04-12T08:44:00.321Z,59.40
2018-04-12T08:46:28.639Z,58.30
2018-04-12T08:48:56.975Z,61.43
2018-04-12T08:51:25.287Z,60.90
2018-04-12T08:53:53.668Z,52.87
2018-04-12T08:56:21.983Z,58.17
2018-04-12T08:58:50.299Z,63.33
2018-04-12T09:01:18.669Z,58.23
2018-04-12T09:03:46.940Z,59.90
2018-04-12T09:06:16.012Z,57.10
2018-04-12T09:08:44.363Z,57.93
2018-04-12T09:11:12.694Z,52.53
2018-04-12T09:13:41.758Z,52.70
2018-04-12T09:16:10.874Z,53.50
2018-04-12T09:18:39.168Z,59.33
2018-04-12T09:21:07.468Z,56.90
2018-04-12T09:23:36.572Z,58.73
2018-04-12T09:26:04.878Z,57.17
2018-04-12T09:28:33.199Z,55.97
2018-04-12T09:31:01.529Z,55.70
2018-04-12T09:33:29.862Z,56.43
2018-04-12T09:35:58.191Z,58.47
2018-04-12T09:38:26.532Z,55.73
2018-04-12T09:40:54.853Z,54.77
2018-04-12T09:43:23.179Z,49.57
2018-04-12T09:45:53.455Z,56.30
2018-04-12T09:48:21.780Z,51.90
2018-04-12T09:50:50.106Z,56.07
2018-04-12T09:53:18.421Z,53.60
2018-04-12T09:55:46.730Z,50.60
2018-04-12T09:58:15.787Z,53.50
2018-04-12T10:00:59.085Z,50.07
2018-04-12T10:03:35.651Z,52.23
2018-04-12T10:06:06.256Z,51.67
2018-04-12T10:08:35.610Z,48.70
2018-04-12T10:11:04.114Z,51.87
2018-04-12T10:13:32.429Z,56.97
2018-04-12T10:16:01.519Z,48.90
2018-04-12T10:18:29.839Z,50.03
2018-04-12T10:20:58.971Z,49.83
2018-04-12T10:23:27.312Z,47.97
2018-04-12T10:25:56.409Z,54.80
2018-04-12T10:28:25.503Z,51.07
2018-04-12T10:30:57.365Z,50.43
2018-04-12T10:33:40.910Z,52.97
2018-04-12T10:36:14.978Z,48.57
2018-04-12T10:38:43.318Z,55.20
2018-04-12T10:41:14.136Z,48.93
2018-04-12T10:43:45.528Z,49.70
2018-04-12T10:46:14.254Z,47.50
2018-04-12T10:48:43.180Z,45.50
2018-04-12T10:51:11.496Z,47.23
2018-04-12T10:53:39.866Z,46.00
2018-04-12T10:56:08.213Z,46.27
2018-04-12T10:58:36.571Z,42.87
2018-04-12T11:01:04.959Z,48.00
2018-04-12T11:03:34.619Z,50.30
2018-04-12T11:06:03.861Z,46.97
2018-04-12T11:08:34.153Z,48.07
2018-04-12T11:11:05.815Z,51.37
2018-04-12T11:13:34.330Z,45.27
2018-04-12T11:16:02.668Z,47.63
2018-04-12T11:18:31.071Z,47.87
2018-04-12T11:20:59.315Z,44.53
2018-04-12T11:23:27.701Z,45.20
2018-04-12T11:25:56.764Z,44.73
2018-04-12T11:28:25.635Z,45.97
2018-04-12T11:31:08.300Z,45.53
2018-04-12T11:33:39.094Z,44.20
2018-04-12T11:36:08.420Z,47.20
2018-04-12T11:38:37.509Z,45.20
2018-04-12T11:41:06.362Z,45.23
2018-04-12T11:43:38.802Z,45.50
2018-04-12T11:46:08.387Z,44.80
2018-04-12T11:48:37.902Z,46.97
2018-04-12T11:51:06.216Z,46.33
2018-04-12T11:53:34.533Z,46.10
2018-04-12T11:56:02.860Z,45.10
2018-04-12T11:58:31.495Z,46.10
2018-04-12T12:00:59.933Z,45.30
2018-04-12T12:03:30.215Z,47.47
2018-04-12T12:05:58.540Z,46.97
2018-04-12T12:08:27.632Z,47.27
2018-04-12T12:10:56.823Z,45.07
2018-04-12T12:13:25.346Z,46.40
2018-04-12T12:15:53.677Z,45.43
2018-04-12T12:18:22.014Z,46.33
2018-04-12T12:20:50.329Z,47.03
2018-04-12T12:23:18.809Z,45.77
2018-04-12T12:25:47.135Z,46.77
2018-04-12T12:28:16.250Z,43.97
2018-04-12T12:30:45.993Z,43.03
2018-04-12T12:33:14.305Z,43.30
2018-04-12T12:35:42.643Z,45.60
2018-04-12T12:38:10.969Z,47.27
2018-04-12T12:40:39.287Z,45.37
2018-04-12T12:43:07.604Z,45.57
2018-04-12T12:45:35.928Z,47.07
2018-04-12T12:48:05.018Z,43.40
2018-04-12T12:50:33.408Z,41.57
2018-04-12T12:53:02.484Z,41.73
2018-04-12T12:55:30.799Z,40.93
2018-04-12T12:57:59.885Z,42.80
2018-04-12T13:00:37.132Z,43.40
2018-04-12T13:03:06.369Z,41.87
2018-04-12T13:05:35.504Z,43.73
2018-04-12T13:08:03.848Z,43.57
2018-04-12T13:10:32.194Z,45.13
2018-04-12T13:13:00.544Z,40.77
2018-04-12T13:15:28.926Z,43.27
2018-04-12T13:17:57.265Z,44.23
2018-04-12T13:20:25.593Z,41.63
2018-04-12T13:22:53.902Z,43.47
2018-04-12T13:25:22.272Z,44.63
2018-04-12T13:27:50.812Z,43.50
2018-04-12T13:30:19.279Z,45.47
2018-04-12T13:32:47.755Z,45.40
2018-04-12T13:35:16.065Z,46.53
2018-04-12T13:37:45.902Z,54.23
2018-04-12T13:40:14.227Z,53.07
2018-04-12T13:42:42.595Z,55.07
2018-04-12T13:45:10.911Z,57.03
2018-04-12T13:47:39.222Z,57.53
2018-04-12T13:50:07.528Z,60.07
2018-04-12T13:52:47.872Z,68.67
2018-04-12T13:55:20.059Z,64.40
2018-04-12T13:57:48.405Z,68.43
2018-04-12T14:00:19.212Z,74.63
2018-04-12T14:02:47.941Z,67.80
2018-04-12T14:05:16.254Z,70.30
2018-04-12T14:07:44.558Z,75.10
2018-04-12T14:10:12.982Z,86.80
2018-04-12T14:12:41.307Z,65.47
2018-04-12T14:15:09.617Z,78.23
2018-04-12T14:17:41.573Z,65.07
2018-04-12T14:20:09.896Z,67.00
2018-04-12T14:22:38.604Z,69.33
2018-04-12T14:25:06.944Z,68.03
2018-04-12T14:27:36.475Z,65.30
2018-04-12T14:30:04.816Z,62.27
2018-04-12T14:32:33.308Z,58.87
2018-04-12T14:35:02.404Z,60.47
2018-04-12T14:37:31.165Z,58.97
2018-04-12T14:39:59.839Z,51.90
2018-04-12T14:42:28.339Z,54.60
2018-04-12T14:44:56.681Z,52.77
2018-04-12T14:47:25.089Z,50.83
2018-04-12T14:49:53.503Z,50.27
2018-04-12T14:52:21.813Z,52.70
2018-04-12T14:54:50.176Z,47.70
2018-04-12T14:57:18.520Z,51.07
2018-04-12T14:59:46.851Z,50.20
2018-04-12T15:02:15.798Z,48.40
2018-04-12T15:04:44.121Z,50.27
2018-04-12T15:07:13.213Z,46.60
2018-04-12T15:09:41.542Z,44.47
2018-04-12T15:12:09.895Z,44.60
2018-04-12T15:14:38.975Z,45.77
2018-04-12T15:17:07.311Z,44.47
2018-04-12T15:19:35.637Z,45.50
2018-04-12T15:22:04.011Z,44.10
2018-04-12T15:24:32.840Z,45.97
2018-04-12T15:27:01.959Z,46.20
2018-04-12T15:29:30.320Z,46.83
2018-04-12T15:31:59.500Z,46.07
2018-04-12T15:34:27.796Z,48.87
2018-04-12T15:36:56.877Z,49.30
2018-04-12T15:39:25.196Z,48.77
2018-04-12T15:41:53.497Z,48.97
2018-04-12T15:44:21.796Z,51.63
2018-04-12T15:46:50.419Z,49.13
2018-04-12T15:49:19.550Z,53.73
2018-04-12T15:51:47.857Z,53.60
2018-04-12T15:54:16.155Z,52.60
2018-04-12T15:56:44.461Z,51.90
2018-04-12T15:59:12.818Z,52.23
2018-04-12T16:01:41.154Z,50.07
2018-04-12T16:04:09.587Z,53.20
2018-04-12T16:06:37.883Z,56.43
2018-04-12T16:09:06.230Z,55.63
2018-04-12T16:11:35.935Z,54.83
2018-04-12T16:14:04.297Z,54.40
2018-04-12T16:16:33.346Z,53.37
2018-04-12T16:19:01.678Z,57.47
2018-04-12T16:21:30.241Z,58.77
2018-04-12T16:23:59.427Z,68.03
2018-04-12T16:26:27.789Z,56.07
2018-04-12T16:28:56.128Z,59.80
2018-04-12T16:31:24.451Z,70.33
2018-04-12T16:33:52.771Z,63.77
2018-04-12T16:36:21.916Z,68.47
2018-04-12T16:38:50.222Z,68.23
2018-04-12T16:41:18.529Z,66.90
2018-04-12T16:43:47.601Z,70.50
2018-04-12T16:46:15.923Z,62.33
2018-04-12T16:48:44.279Z,61.20
2018-04-12T16:51:12.589Z,65.70
2018-04-12T16:53:40.909Z,65.13
2018-04-12T16:56:09.237Z,62.37
2018-04-12T16:58:38.302Z,66.37
2018-04-12T17:01:06.624Z,62.90
2018-04-12T17:03:34.979Z,66.30
2018-04-12T17:06:03.308Z,67.00
2018-04-12T17:08:31.632Z,69.10
2018-04-12T17:11:00.244Z,69.43
2018-04-12T17:13:30.100Z,69.43
2018-04-12T17:15:58.419Z,64.10
2018-04-12T17:18:28.266Z,63.47
2018-04-12T17:20:58.685Z,64.60
2018-04-12T17:23:28.348Z,72.83
2018-04-12T17:25:56.802Z,71.23
2018-04-12T17:28:25.099Z,71.03
2018-04-12T17:30:53.406Z,75.77
2018-04-12T17:33:21.718Z,70.73
2018-04-12T17:35:50.068Z,68.97
2018-04-12T17:38:25.629Z,74.40
2018-04-12T17:40:55.911Z,75.90
2018-04-12T17:43:24.771Z,72.37
2018-04-12T17:45:57.085Z,77.77
2018-04-12T17:48:25.494Z,78.67
2018-04-12T17:50:56.140Z,71.10
2018-04-12T17:53:30.658Z,74.33
2018-04-12T17:56:01.446Z,74.97
2018-04-12T17:58:59.099Z,79.57
2018-04-12T18:01:30.018Z,72.27
2018-04-12T18:04:02.764Z,76.00
2018-04-12T18:06:36.199Z,78.37
2018-04-12T18:09:07.646Z,77.83
2018-04-12T18:11:42.377Z,81.90
2018-04-12T18:14:23.183Z,81.03
2018-04-12T18:17:16.193Z,81.13
2018-04-12T18:19:50.823Z,79.53
2018-04-12T18:22:19.296Z,84.07
2018-04-12T18:24:48.655Z,92.57
2018-04-12T18:27:29.040Z,88.57
2018-04-12T18:29:58.384Z,91.17
2018-04-12T18:32:27.074Z,98.50
2018-04-12T18:34:55.660Z,88.30
2018-04-12T18:37:24.186Z,94.90
2018-04-12T18:39:52.774Z,90.60
2018-04-12T18:42:21.445Z,95.23
2018-04-12T18:44:49.990Z,89.13
2018-04-12T18:47:18.379Z,95.30
2018-04-12T18:49:47.461Z,88.23
2018-04-12T18:52:16.227Z,96.80
2018-04-12T18:54:44.552Z,95.90
2018-04-12T18:57:14.136Z,94.20
2018-04-12T18:59:42.862Z,92.60
2018-04-12T19:02:11.992Z,94.90
2018-04-12T19:04:40.353Z,100.73
2018-04-12T19:07:12.426Z,100.10
2018-04-12T19:09:44.946Z,105.27
2018-04-12T19:12:13.270Z,112.93
2018-04-12T19:14:41.580Z,97.90
2018-04-12T19:17:10.131Z,98.27
2018-04-12T19:19:39.219Z,91.10
2018-04-12T19:22:08.291Z,99.67
2018-04-12T19:24:37.550Z,95.50
2018-04-12T19:27:06.110Z,91.70
2018-04-12T19:29:54.410Z,93.07
2018-04-12T19:32:22.796Z,88.40
2018-04-12T19:34:51.202Z,97.70
2018-04-12T19:37:19.535Z,90.43
2018-04-12T19:39:47.868Z,87.53
2018-04-12T19:42:16.203Z,96.83
2018-04-12T19:44:44.563Z,95.40
2018-04-12T19:47:12.965Z,118.00
2018-04-12T19:49:41.399Z,96.93
2018-04-12T19:52:10.173Z,95.40
2018-04-12T19:54:38.577Z,93.73
2018-04-12T19:57:07.018Z,102.37
2018-04-12T19:59:35.346Z,97.40
2018-04-12T20:02:04.491Z,93.77
2018-04-12T20:04:32.870Z,100.47
2018-04-12T20:07:01.255Z,98.37
2018-04-12T20:09:29.594Z,107.90
2018-04-12T20:11:57.908Z,93.97
2018-04-12T20:14:26.215Z,100.80
2018-04-12T20:16:54.521Z,95.70
2018-04-12T20:19:22.855Z,106.43
2018-04-12T20:21:51.164Z,101.20
2018-04-12T20:24:19.494Z,97.40
2018-04-12T20:26:48.583Z,100.93
2018-04-12T20:29:16.962Z,101.10
2018-04-12T20:31:46.043Z,94.13
2018-04-12T20:34:14.349Z,97.43
2018-04-12T20:36:42.813Z,97.27
2018-04-12T20:39:11.112Z,104.27
2018-04-12T20:41:40.194Z,99.83
2018-04-12T20:44:08.639Z,100.97
2018-04-12T20:46:37.740Z,103.20
2018-04-12T20:49:06.121Z,96.33
2018-04-12T20:51:34.462Z,105.93
2018-04-12T20:54:03.550Z,107.63
2018-04-12T20:56:31.912Z,103.10
2018-04-12T20:59:00.209Z,97.87
2018-04-12T21:01:29.270Z,98.97
2018-04-12T21:03:57.610Z,109.60
2018-04-12T21:06:25.946Z,106.40
2018-04-12T21:08:54.447Z,103.70
2018-04-12T21:11:22.774Z,107.00
2018-04-12T21:13:51.093Z,106.80
2018-04-12T21:16:19.406Z,108.07
2018-04-12T21:18:47.716Z,106.90
2018-04-12T21:21:16.036Z,102.87
2018-04-12T21:23:44.366Z,98.93
2018-04-12T21:26:13.492Z,104.43
2018-04-12T21:28:42.769Z,102.20
2018-04-12T21:31:11.224Z,104.80
2018-04-12T21:33:47.391Z,104.70
2018-04-12T21:36:15.711Z,103.80
2018-04-12T21:38:46.277Z,105.17
2018-04-12T21:41:15.260Z,122.23
2018-04-12T21:43:44.050Z,116.90
2018-04-12T21:46:12.502Z,115.93
2018-04-12T21:48:44.635Z,122.20
2018-04-12T21:51:13.002Z,136.13
2018-04-12T21:53:41.868Z,118.63
2018-04-12T21:56:10.308Z,116.23
2018-04-12T21:58:38.620Z,111.93
2018-04-12T22:01:07.143Z,124.67
2018-04-12T22:03:35.432Z,134.47
2018-04-12T22:06:03.756Z,144.43
2018-04-12T22:08:32.827Z,138.40
2018-04-12T22:11:01.244Z,156.07
2018-04-12T22:13:30.365Z,153.00
2018-04-12T22:16:01.001Z,150.23
2018-04-12T22:18:46.927Z,147.77
2018-04-12T22:21:20.051Z,157.00
2018-04-12T22:24:02.677Z,156.87
2018-04-12T22:26:34.877Z,153.93
2018-04-12T22:29:03.250Z,173.30
2018-04-12T22:31:31.564Z,168.43
2018-04-12T22:33:59.876Z,163.47
2018-04-12T22:36:29.005Z,163.27
2018-04-12T22:38:57.316Z,166.73
2018-04-12T22:41:25.618Z,172.97
2018-04-12T22:43:53.931Z,163.83
2018-04-12T22:46:23.173Z,162.93
2018-04-12T22:48:51.530Z,161.50
2018-04-12T22:51:19.835Z,170.00
2018-04-12T22:53:48.163Z,162.93
2018-04-12T22:56:16.608Z,158.20
2018-04-12T22:58:44.952Z,164.83
2018-04-12T23:01:14.254Z,165.57
2018-04-12T23:03:42.601Z,175.13
2018-04-12T23:06:10.937Z,203.67
2018-04-12T23:08:39.281Z,209.00
2018-04-12T23:11:07.587Z,185.57
2018-04-12T23:13:35.899Z,190.20
2018-04-12T23:16:04.281Z,166.33
2018-04-12T23:18:32.618Z,166.10
2018-04-12T23:21:01.696Z,172.23
2018-04-12T23:23:30.133Z,170.80
2018-04-12T23:25:58.438Z,173.23
2018-04-12T23:28:26.786Z,165.33
2018-04-12T23:30:55.159Z,174.97
2018-04-12T23:33:24.251Z,168.93
2018-04-12T23:35:53.513Z,165.07
2018-04-12T23:38:21.844Z,157.47
2018-04-12T23:40:50.932Z,147.73
2018-04-12T23:43:20.023Z,147.87
2018-04-12T23:45:48.357Z,132.30
2018-04-12T23:48:16.664Z,126.53
2018-04-12T23:50:44.975Z,129.17
2018-04-12T23:53:14.053Z,130.10
2018-04-12T23:55:42.375Z,119.67
2018-04-12T23:58:10.679Z,117.90
